createdAt,value
2023-01-04T00:00:38.569Z,95921.31
2023-01-04T00:03:05.228Z,95917.38
2023-01-04T00:05:31.826Z,95907.59
2023-01-04T00:07:58.270Z,95906.16
2023-01-04T00:10:24.858Z,95898.63
2023-01-04T00:12:51.347Z,95901.38
2023-01-04T00:15:17.811Z,95908.75
2023-01-04T00:17:44.266Z,95907.06
2023-01-04T00:20:10.707Z,95899.31
2023-01-04T00:22:37.161Z,95897.63
2023-01-04T00:25:03.578Z,95893.56
2023-01-04T00:27:30.037Z,95903.69
2023-01-04T00:29:56.446Z,95895.19
2023-01-04T00:32:22.864Z,95901.50
2023-01-04T00:34:49.337Z,95899.13
2023-01-04T00:37:15.787Z,95893.28
2023-01-04T00:39:42.252Z,95892.75
2023-01-04T00:42:08.701Z,95881.91
2023-01-04T00:44:35.162Z,95893.44
2023-01-04T00:47:01.626Z,95893.78
2023-01-04T00:49:28.041Z,95891.28
2023-01-04T00:51:54.557Z,95891.50
2023-01-04T00:54:20.981Z,95894.44
2023-01-04T00:56:47.426Z,95887.41
2023-01-04T00:59:13.862Z,95894.78
2023-01-04T01:01:40.426Z,95887.28
2023-01-04T01:04:07.038Z,95889.28
2023-01-04T01:06:33.529Z,95888.34
2023-01-04T01:08:59.951Z,95892.97
2023-01-04T01:11:26.376Z,95889.72
2023-01-04T01:13:52.803Z,95886.28
2023-01-04T01:16:37.970Z,95887.06
2023-01-04T01:19:05.634Z,95886.53
2023-01-04T01:21:32.062Z,95883.38
2023-01-04T01:23:58.462Z,95881.91
2023-01-04T01:26:24.858Z,95882.38
2023-01-04T01:28:51.274Z,95888.16
2023-01-04T01:31:17.768Z,95886.72
2023-01-04T01:33:44.231Z,95888.50
2023-01-04T01:36:10.629Z,95898.88
2023-01-04T01:38:37.040Z,95895.47
2023-01-04T01:41:03.455Z,95896.75
2023-01-04T01:43:29.867Z,95904.84
2023-01-04T01:45:56.386Z,95901.53
2023-01-04T01:48:22.888Z,95904.00
2023-01-04T01:50:49.311Z,95908.81
2023-01-04T01:53:15.749Z,95909.88
2023-01-04T01:55:42.151Z,95925.47
2023-01-04T01:58:08.594Z,95917.28
2023-01-04T02:00:35.011Z,95927.06
2023-01-04T02:03:01.543Z,95924.75
2023-01-04T02:05:28.049Z,95929.19
2023-01-04T02:07:54.493Z,95925.06
2023-01-04T02:10:20.951Z,95919.97
2023-01-04T02:12:47.375Z,95915.78
2023-01-04T02:15:13.880Z,95921.00
2023-01-04T02:17:40.318Z,95919.56
2023-01-04T02:20:06.788Z,95914.41
2023-01-04T02:22:33.229Z,95918.81
2023-01-04T02:24:59.664Z,95914.63
2023-01-04T02:27:26.258Z,95911.19
2023-01-04T02:29:52.679Z,95912.13
2023-01-04T02:32:19.120Z,95898.31
2023-01-04T02:34:45.571Z,95898.41
2023-01-04T02:37:12.006Z,95896.75
2023-01-04T02:39:38.418Z,95898.31
2023-01-04T02:42:04.856Z,95894.91
2023-01-04T02:44:31.276Z,95892.81
2023-01-04T02:46:57.721Z,95886.13
2023-01-04T02:49:24.225Z,95895.31
2023-01-04T02:51:50.639Z,95891.88
2023-01-04T02:54:17.055Z,95887.13
2023-01-04T02:56:43.719Z,95890.53
2023-01-04T02:59:10.121Z,95895.16
2023-01-04T03:01:36.628Z,95905.81
2023-01-04T03:04:03.130Z,95896.53
2023-01-04T03:06:29.623Z,95894.94
2023-01-04T03:08:56.028Z,95898.41
2023-01-04T03:11:22.443Z,95899.75
2023-01-04T03:13:48.892Z,95898.72
2023-01-04T03:16:15.368Z,95902.16
2023-01-04T03:18:41.854Z,95903.94
2023-01-04T03:21:08.278Z,95893.25
2023-01-04T03:23:34.725Z,95898.25
2023-01-04T03:26:01.180Z,95892.31
2023-01-04T03:28:27.656Z,95892.63
2023-01-04T03:30:54.104Z,95888.34
2023-01-04T03:33:20.579Z,95889.28
2023-01-04T03:35:47.001Z,95887.28
2023-01-04T03:38:13.433Z,95882.22
2023-01-04T03:40:39.884Z,95884.75
2023-01-04T03:43:06.321Z,95880.13
2023-01-04T03:45:32.756Z,95874.97
2023-01-04T03:47:59.158Z,95875.25
2023-01-04T03:50:25.564Z,95875.91
2023-01-04T03:52:52.021Z,95878.34
2023-01-04T03:55:18.427Z,95877.88
2023-01-04T03:57:44.835Z,95866.47
2023-01-04T04:00:11.279Z,95866.59
2023-01-04T04:02:37.726Z,95869.34
2023-01-04T04:05:04.182Z,95867.03
2023-01-04T04:07:30.588Z,95866.31
2023-01-04T04:09:56.994Z,95860.97
2023-01-04T04:12:23.414Z,95865.38
2023-01-04T04:14:49.862Z,95867.78
2023-01-04T04:17:16.282Z,95857.75
2023-01-04T04:19:42.719Z,95863.28
2023-01-04T04:22:09.202Z,95865.69
2023-01-04T04:24:35.626Z,95864.25
2023-01-04T04:27:02.162Z,95865.09
2023-01-04T04:29:28.598Z,95859.00
2023-01-04T04:31:55.044Z,95860.03
2023-01-04T04:34:21.598Z,95857.81
2023-01-04T04:36:48.012Z,95860.97
2023-01-04T04:39:14.455Z,95849.06
2023-01-04T04:41:40.920Z,95855.75
2023-01-04T04:44:07.378Z,95849.13
2023-01-04T04:46:33.824Z,95858.94
2023-01-04T04:49:00.288Z,95860.09
2023-01-04T04:51:26.692Z,95858.50
2023-01-04T04:53:53.123Z,95855.94
2023-01-04T04:56:19.554Z,95852.13
2023-01-04T04:58:46.048Z,95859.50
2023-01-04T05:01:12.552Z,95867.00
2023-01-04T05:03:39.135Z,95866.31
2023-01-04T05:06:05.614Z,95868.09
2023-01-04T05:08:32.084Z,95860.09
2023-01-04T05:10:58.535Z,95864.28
2023-01-04T05:13:24.950Z,95865.84
2023-01-04T05:15:51.405Z,95874.53
2023-01-04T05:18:17.835Z,95877.22
2023-01-04T05:20:44.303Z,95879.97
2023-01-04T05:23:10.725Z,95880.59
2023-01-04T05:25:37.168Z,95876.06
2023-01-04T05:28:03.592Z,95880.88
2023-01-04T05:30:30.034Z,95877.28
2023-01-04T05:32:56.469Z,95865.50
2023-01-04T05:35:22.893Z,95870.56
2023-01-04T05:37:49.314Z,95869.59
2023-01-04T05:40:15.744Z,95865.19
2023-01-04T05:42:42.152Z,95866.84
2023-01-04T05:45:08.575Z,95874.59
2023-01-04T05:47:34.993Z,95876.03
2023-01-04T05:50:01.498Z,95868.72
2023-01-04T05:52:27.905Z,95872.66
2023-01-04T05:54:54.331Z,95871.47
2023-01-04T05:57:20.773Z,95873.75
2023-01-04T05:59:47.207Z,95875.09
2023-01-04T06:02:13.733Z,95863.53
2023-01-04T06:04:40.273Z,95869.97
2023-01-04T06:07:06.724Z,95864.63
2023-01-04T06:09:33.184Z,95868.81
2023-01-04T06:11:59.634Z,95866.34
2023-01-04T06:14:26.406Z,95862.16
2023-01-04T06:16:52.882Z,95868.97
2023-01-04T06:19:19.586Z,95870.50
2023-01-04T06:21:46.074Z,95873.13
2023-01-04T06:24:12.518Z,95866.97
2023-01-04T06:26:39.027Z,95877.25
2023-01-04T06:29:05.468Z,95877.84
2023-01-04T06:31:32.015Z,95873.31
2023-01-04T06:33:58.470Z,95880.94
2023-01-04T06:36:24.885Z,95879.25
2023-01-04T06:38:51.313Z,95885.50
2023-01-04T06:41:17.779Z,95882.88
2023-01-04T06:43:44.267Z,95884.50
2023-01-04T06:46:10.807Z,95886.94
2023-01-04T06:48:37.256Z,95888.13
2023-01-04T06:51:03.677Z,95892.63
2023-01-04T06:53:30.136Z,95890.00
2023-01-04T06:55:56.547Z,95886.94
2023-01-04T06:58:22.991Z,95890.38
2023-01-04T07:00:49.441Z,95896.22
2023-01-04T07:03:16.444Z,95899.34
2023-01-04T07:05:42.998Z,95898.28
2023-01-04T07:08:09.433Z,95901.38
2023-01-04T07:10:35.863Z,95907.97
2023-01-04T07:13:02.352Z,95904.97
2023-01-04T07:15:39.424Z,95905.25
2023-01-04T07:18:06.800Z,95902.25
2023-01-04T07:20:33.217Z,95905.09
2023-01-04T07:22:59.675Z,95906.78
2023-01-04T07:25:26.087Z,95899.63
2023-01-04T07:27:52.509Z,95896.06
2023-01-04T07:30:18.934Z,95900.94
2023-01-04T07:32:45.454Z,95900.69
2023-01-04T07:35:11.857Z,95896.28
2023-01-04T07:37:38.290Z,95893.28
2023-01-04T07:40:04.717Z,95890.44
2023-01-04T07:42:31.252Z,95895.81
2023-01-04T07:44:57.703Z,95890.44
2023-01-04T07:47:24.145Z,95890.66
2023-01-04T07:49:50.550Z,95888.75
2023-01-04T07:52:16.955Z,95894.59
2023-01-04T07:54:43.408Z,95899.84
2023-01-04T07:57:09.851Z,95892.69
2023-01-04T07:59:36.297Z,95901.78
2023-01-04T08:02:02.861Z,95905.47
2023-01-04T08:04:34.632Z,95894.94
2023-01-04T08:07:01.686Z,95901.66
2023-01-04T08:09:28.116Z,95904.97
2023-01-04T08:11:54.544Z,95913.00
2023-01-04T08:14:20.980Z,95905.81
2023-01-04T08:16:47.414Z,95907.94
2023-01-04T08:19:13.860Z,95918.00
2023-01-04T08:21:40.279Z,95916.41
2023-01-04T08:24:06.711Z,95911.50
2023-01-04T08:26:33.117Z,95915.22
2023-01-04T08:28:59.589Z,95910.56
2023-01-04T08:31:26.111Z,95906.13
2023-01-04T08:33:52.618Z,95905.25
2023-01-04T08:36:24.385Z,95910.03
2023-01-04T08:39:01.650Z,95904.00
2023-01-04T08:44:14.965Z,95908.63
2023-01-04T08:46:41.494Z,95912.53
2023-01-04T08:49:07.967Z,95910.13
2023-01-04T08:51:34.421Z,95909.47
2023-01-04T08:54:00.838Z,95916.03
2023-01-04T08:56:27.287Z,95909.19
2023-01-04T08:58:53.703Z,95908.28
2023-01-04T09:01:20.204Z,95912.91
2023-01-04T09:03:46.670Z,95912.25
2023-01-04T09:06:13.086Z,95908.88
2023-01-04T09:08:39.496Z,95915.81
2023-01-04T09:11:05.970Z,95919.03
2023-01-04T09:13:32.372Z,95912.41
2023-01-04T09:15:58.822Z,95908.81
2023-01-04T09:18:33.165Z,95918.25
2023-01-04T09:20:59.973Z,95912.97
2023-01-04T09:23:26.421Z,95918.13
2023-01-04T09:25:52.843Z,95910.66
2023-01-04T09:28:19.284Z,95904.41
2023-01-04T09:30:45.733Z,95907.38
2023-01-04T09:33:12.138Z,95913.59
2023-01-04T09:35:38.618Z,95912.94
2023-01-04T09:38:05.050Z,95912.13
2023-01-04T09:40:31.488Z,95915.19
2023-01-04T09:43:20.394Z,95920.59
2023-01-04T09:45:44.320Z,95916.16
2023-01-04T09:48:10.784Z,95918.50
2023-01-04T09:50:37.182Z,95918.38
2023-01-04T09:53:03.587Z,95922.28
2023-01-04T09:55:40.989Z,95914.25
2023-01-04T09:58:07.928Z,95914.81
2023-01-04T10:00:36.331Z,95910.81
2023-01-04T10:03:06.819Z,95912.50
2023-01-04T10:05:33.496Z,95917.22
2023-01-04T10:08:00.031Z,95914.91
2023-01-04T10:10:26.522Z,95908.38
2023-01-04T10:12:56.486Z,95906.44
2023-01-04T10:15:26.169Z,95905.47
2023-01-04T10:23:25.372Z,95901.72
2023-01-04T10:25:51.785Z,95898.00
2023-01-04T10:28:18.231Z,95899.09
2023-01-04T10:30:44.676Z,95897.03
2023-01-04T10:33:11.112Z,95895.25
2023-01-04T10:35:37.557Z,95887.03
2023-01-04T10:38:03.948Z,95886.50
2023-01-04T10:40:30.366Z,95883.03
2023-01-04T10:42:56.798Z,95880.13
2023-01-04T10:45:23.228Z,95882.59
2023-01-04T10:47:49.660Z,95880.81
2023-01-04T10:50:16.086Z,95876.09
2023-01-04T10:52:42.503Z,95873.31
2023-01-04T10:55:08.897Z,95873.31
2023-01-04T10:57:35.335Z,95869.69
2023-01-04T11:00:01.761Z,95865.13
2023-01-04T11:02:28.247Z,95866.94
2023-01-04T11:04:54.810Z,95869.28
2023-01-04T11:07:21.523Z,95857.75
2023-01-04T11:09:47.977Z,95849.16
2023-01-04T11:12:14.430Z,95847.47
2023-01-04T11:14:40.887Z,95856.25
2023-01-04T11:17:07.356Z,95850.97
2023-01-04T11:19:33.810Z,95843.44
2023-01-04T11:22:00.232Z,95843.16
2023-01-04T11:24:34.129Z,95839.28
2023-01-04T11:27:00.810Z,95842.22
2023-01-04T11:29:27.227Z,95824.25
2023-01-04T11:31:53.720Z,95825.38
2023-01-04T11:34:20.243Z,95826.75
2023-01-04T11:36:46.678Z,95818.13
2023-01-04T11:39:13.090Z,95825.03
2023-01-04T11:41:39.512Z,95819.19
2023-01-04T11:44:05.992Z,95820.47
2023-01-04T11:46:32.553Z,95815.59
2023-01-04T11:48:59.038Z,95821.00
2023-01-04T11:51:25.462Z,95819.59
2023-01-04T11:53:51.937Z,95805.66
2023-01-04T11:56:18.355Z,95808.31
2023-01-04T11:58:44.812Z,95803.53
2023-01-04T12:01:11.284Z,95806.19
2023-01-04T12:03:37.686Z,95797.56
2023-01-04T12:06:04.135Z,95811.91
2023-01-04T12:08:30.571Z,95812.44
2023-01-04T12:10:57.007Z,95800.81
2023-01-04T12:13:23.432Z,95804.25
2023-01-04T12:15:49.840Z,95803.59
2023-01-04T12:18:16.434Z,95806.38
2023-01-04T12:20:42.982Z,95801.22
2023-01-04T12:23:09.419Z,95796.34
2023-01-04T12:25:35.868Z,95801.81
2023-01-04T12:28:02.309Z,95782.06
2023-01-04T12:30:28.731Z,95786.22
2023-01-04T12:32:55.158Z,95791.81
2023-01-04T12:35:21.657Z,95796.41
2023-01-04T12:37:48.082Z,95802.53
2023-01-04T12:40:14.524Z,95799.47
2023-01-04T12:42:40.958Z,95793.75
2023-01-04T12:45:07.419Z,95790.81
2023-01-04T12:47:33.849Z,95785.63
2023-01-04T12:50:00.284Z,95777.50
2023-01-04T12:52:37.890Z,95775.69
2023-01-04T12:55:09.277Z,95767.78
2023-01-04T12:57:37.932Z,95768.16
2023-01-04T13:00:04.734Z,95766.50
2023-01-04T13:02:31.578Z,95762.72
2023-01-04T13:07:44.510Z,95752.44
2023-01-04T13:10:10.951Z,95748.69
2023-01-04T13:12:37.377Z,95748.81
2023-01-04T13:15:03.828Z,95742.75
2023-01-04T13:17:30.258Z,95744.44
2023-01-04T13:19:56.707Z,95737.47
2023-01-04T13:22:28.573Z,95745.31
2023-01-04T13:24:55.547Z,95741.44
2023-01-04T13:27:21.950Z,95737.97
2023-01-04T13:29:48.371Z,95740.06
2023-01-04T13:32:14.812Z,95740.19
2023-01-04T13:34:41.302Z,95734.69
2023-01-04T13:37:07.759Z,95730.66
2023-01-04T13:39:34.221Z,95725.38
2023-01-04T13:42:00.657Z,95730.66
2023-01-04T13:44:43.995Z,95737.59
2023-01-04T13:47:13.574Z,95729.81
2023-01-04T13:49:40.060Z,95738.56
2023-01-04T13:52:33.959Z,95730.66
2023-01-04T13:54:52.981Z,95736.31
2023-01-04T13:57:19.433Z,95735.53
2023-01-04T13:59:45.898Z,95740.19
2023-01-04T14:02:12.529Z,95739.22
2023-01-04T14:04:39.068Z,95736.59
2023-01-04T14:07:05.534Z,95740.50
2023-01-04T14:09:32.378Z,95746.63
2023-01-04T14:12:04.078Z,95735.53
2023-01-04T14:14:33.037Z,95737.75
2023-01-04T14:16:59.472Z,95735.25
2023-01-04T14:19:26.113Z,95729.16
2023-01-04T14:21:52.613Z,95733.28
2023-01-04T14:24:41.693Z,95734.13
2023-01-04T14:27:05.576Z,95742.03
2023-01-04T14:29:31.983Z,95738.16
2023-01-04T14:31:58.442Z,95740.81
2023-01-04T14:34:24.884Z,95744.69
2023-01-04T14:36:51.335Z,95736.75
2023-01-04T14:39:17.783Z,95743.66
2023-01-04T14:41:44.189Z,95738.81
2023-01-04T14:44:10.622Z,95744.13
2023-01-04T14:46:37.133Z,95730.50
2023-01-04T14:49:03.631Z,95735.53
2023-01-04T14:51:30.053Z,95741.22
2023-01-04T14:53:56.451Z,95738.44
2023-01-04T14:56:22.862Z,95738.16
2023-01-04T14:58:49.299Z,95739.16
2023-01-04T15:01:15.780Z,95733.88
2023-01-04T15:03:42.560Z,95746.81
2023-01-04T15:06:09.048Z,95741.13
2023-01-04T15:08:36.701Z,95733.91
2023-01-04T15:11:03.160Z,95748.09
2023-01-04T15:13:34.902Z,95746.16
2023-01-04T15:16:05.520Z,95744.63
2023-01-04T15:18:31.988Z,95750.88
2023-01-04T15:20:58.422Z,95729.34
2023-01-04T15:23:24.904Z,95737.25
2023-01-04T15:25:51.324Z,95738.75
2023-01-04T15:28:17.747Z,95738.50
2023-01-04T15:30:44.167Z,95736.81
2023-01-04T15:33:10.616Z,95737.78
2023-01-04T15:35:37.050Z,95732.91
2023-01-04T15:38:06.464Z,95734.84
2023-01-04T15:40:33.282Z,95730.97
2023-01-04T15:42:59.687Z,95727.09
2023-01-04T15:45:26.079Z,95733.88
2023-01-04T15:47:52.516Z,95728.72
2023-01-04T15:50:18.959Z,95730.72
2023-01-04T15:52:45.441Z,95731.38
2023-01-04T15:55:11.876Z,95738.22
2023-01-04T15:57:41.949Z,95745.44
2023-01-04T16:00:10.556Z,95753.09
2023-01-04T16:02:37.061Z,95746.16
2023-01-04T16:05:03.717Z,95741.19
2023-01-04T16:07:34.540Z,95744.09
2023-01-04T16:10:02.960Z,95745.91
2023-01-04T16:12:29.486Z,95745.09
2023-01-04T16:14:55.890Z,95747.72
2023-01-04T16:17:22.365Z,95748.00
2023-01-04T16:19:48.834Z,95740.06
2023-01-04T16:22:15.282Z,95741.34
2023-01-04T16:27:34.739Z,95742.19
2023-01-04T16:30:01.729Z,95753.56
2023-01-04T16:32:28.217Z,95745.22
2023-01-04T16:34:54.639Z,95750.19
2023-01-04T16:37:21.246Z,95750.59
2023-01-04T16:42:34.135Z,95754.91
2023-01-04T16:45:00.599Z,95754.22
2023-01-04T16:47:27.062Z,95753.91
2023-01-04T16:49:53.505Z,95751.97
2023-01-04T16:52:19.967Z,95755.31
2023-01-04T16:54:46.478Z,95756.97
2023-01-04T16:57:12.893Z,95750.16
2023-01-04T16:59:39.328Z,95747.25
2023-01-04T17:02:05.852Z,95752.28
2023-01-04T17:04:32.461Z,95759.66
2023-01-04T17:06:58.921Z,95757.28
2023-01-04T17:09:25.338Z,95759.25
2023-01-04T17:12:36.397Z,95752.72
2023-01-04T17:14:38.176Z,95754.81
2023-01-04T17:17:04.593Z,95763.16
2023-01-04T17:19:31.041Z,95764.13
2023-01-04T17:21:57.442Z,95775.94
2023-01-04T17:24:23.879Z,95776.25
2023-01-04T17:26:50.311Z,95779.00
2023-01-04T17:29:16.817Z,95771.09
2023-01-04T17:31:43.284Z,95776.50
2023-01-04T17:34:09.746Z,95778.59
2023-01-04T17:36:36.222Z,95778.84
2023-01-04T17:39:02.706Z,95778.59
2023-01-04T17:41:29.195Z,95769.00
2023-01-04T17:43:55.602Z,95776.38
2023-01-04T17:46:23.299Z,95767.47
2023-01-04T17:48:55.427Z,95755.41
2023-01-04T17:51:36.527Z,95764.16
2023-01-04T17:54:02.953Z,95764.41
2023-01-04T17:56:29.402Z,95765.41
2023-01-04T17:58:55.834Z,95758.72
2023-01-04T18:01:22.319Z,95758.91
2023-01-04T18:03:48.822Z,95760.84
2023-01-04T18:06:25.464Z,95761.09
2023-01-04T18:08:52.406Z,95758.88
2023-01-04T18:11:18.823Z,95764.16
2023-01-04T18:13:45.373Z,95757.50
2023-01-04T18:16:24.014Z,95750.69
2023-01-04T18:18:51.419Z,95739.31
2023-01-04T18:21:27.938Z,95739.03
2023-01-04T18:24:25.807Z,95733.63
2023-01-04T18:27:10.691Z,95746.25
2023-01-04T18:29:27.926Z,95736.38
2023-01-04T18:31:54.400Z,95741.94
2023-01-04T18:34:20.900Z,95743.75
2023-01-04T18:36:47.305Z,95743.59
2023-01-04T18:39:13.712Z,95739.00
2023-01-04T18:41:40.112Z,95737.91
2023-01-04T18:44:31.358Z,95735.84
2023-01-04T18:46:52.926Z,95731.81
2023-01-04T18:49:19.389Z,95736.00
2023-01-04T18:51:45.822Z,95751.25
2023-01-04T18:54:12.243Z,95745.28
2023-01-04T18:56:38.731Z,95742.38
2023-01-04T18:59:05.184Z,95743.19
2023-01-04T19:01:31.756Z,95742.78
2023-01-04T19:03:58.424Z,95749.84
2023-01-04T19:06:24.947Z,95760.00
2023-01-04T19:08:57.162Z,95745.09
2023-01-04T19:11:25.652Z,95740.81
2023-01-04T19:13:52.700Z,95744.00
2023-01-04T19:16:20.329Z,95737.03
2023-01-04T19:18:47.930Z,95734.38
2023-01-04T19:21:15.482Z,95741.03
2023-01-04T19:23:42.103Z,95735.34
2023-01-04T19:26:09.785Z,95733.38
2023-01-04T19:28:37.297Z,95742.03
2023-01-04T19:31:04.262Z,95741.22
2023-01-04T19:33:32.497Z,95735.50
2023-01-04T19:35:59.084Z,95738.13
2023-01-04T19:38:25.674Z,95745.47
2023-01-04T19:40:53.252Z,95741.34
2023-01-04T19:43:19.856Z,95748.28
2023-01-04T19:45:46.529Z,95743.97
2023-01-04T19:48:14.040Z,95756.22
2023-01-04T19:50:40.530Z,95738.84
2023-01-04T19:53:06.953Z,95734.69
2023-01-04T19:55:33.464Z,95728.41
2023-01-04T19:57:59.922Z,95736.75
2023-01-04T20:00:27.072Z,95734.69
2023-01-04T20:02:54.037Z,95727.06
2023-01-04T20:05:21.242Z,95731.06
2023-01-04T20:07:47.843Z,95726.94
2023-01-04T20:10:14.801Z,95723.22
2023-01-04T20:12:42.039Z,95714.03
2023-01-04T20:15:08.624Z,95719.59
2023-01-04T20:17:35.236Z,95706.13
2023-01-04T20:20:01.707Z,95701.81
2023-01-04T20:22:28.398Z,95710.56
2023-01-04T20:24:56.003Z,95706.28
2023-01-04T20:27:22.490Z,95702.50
2023-01-04T20:29:48.888Z,95711.41
2023-01-04T20:32:15.342Z,95709.06
2023-01-04T20:34:42.359Z,95693.34
2023-01-04T20:37:08.957Z,95693.91
2023-01-04T20:39:36.544Z,95705.44
2023-01-04T20:42:02.992Z,95708.78
2023-01-04T20:44:29.721Z,95721.97
2023-01-04T20:46:57.328Z,95716.69
2023-01-04T20:49:24.208Z,95709.19
2023-01-04T20:51:50.674Z,95709.88
2023-01-04T20:54:17.133Z,95714.88
2023-01-04T20:56:43.544Z,95720.16
2023-01-04T20:59:09.995Z,95710.84
2023-01-04T21:01:36.497Z,95705.69
2023-01-04T21:04:02.987Z,95704.72
2023-01-04T21:06:29.434Z,95705.13
2023-01-04T21:08:55.889Z,95701.41
2023-01-04T21:11:22.338Z,95695.56
2023-01-04T21:13:49.838Z,95695.25
2023-01-04T21:16:16.291Z,95694.28
2023-01-04T21:18:43.010Z,95698.06
2023-01-04T21:21:10.603Z,95702.22
2023-01-04T21:23:37.232Z,95707.78
2023-01-04T21:26:04.986Z,95700.97
2023-01-04T21:28:31.680Z,95688.59
2023-01-04T21:30:58.204Z,95695.69
2023-01-04T21:33:24.891Z,95684.56
2023-01-04T21:35:52.502Z,95688.31
2023-01-04T21:38:19.097Z,95681.53
2023-01-04T21:40:45.528Z,95686.81
2023-01-04T21:43:11.983Z,95687.78
2023-01-04T21:45:38.415Z,95688.91
2023-01-04T21:48:05.513Z,95689.19
2023-01-04T21:50:32.084Z,95684.88
2023-01-04T21:52:58.678Z,95673.75
2023-01-04T21:55:32.442Z,95677.66
2023-01-04T21:58:00.889Z,95674.31
2023-01-04T22:00:27.600Z,95673.88
2023-01-04T22:02:55.192Z,95663.31
2023-01-04T22:05:22.689Z,95674.88
2023-01-04T22:07:50.286Z,95671.41
2023-01-04T22:10:16.706Z,95660.03
2023-01-04T22:12:43.157Z,95656.56
2023-01-04T22:15:09.565Z,95648.50
2023-01-04T22:17:36.013Z,95652.13
2023-01-04T22:20:02.447Z,95648.22
2023-01-04T22:22:28.865Z,95648.94
2023-01-04T22:24:56.456Z,95650.19
2023-01-04T22:27:22.887Z,95649.63
2023-01-04T22:29:49.324Z,95656.00
2023-01-04T22:32:15.752Z,95644.06
2023-01-04T22:34:42.265Z,95650.88
2023-01-04T22:37:08.704Z,95655.84
2023-01-04T22:39:35.137Z,95655.19
2023-01-04T22:42:01.565Z,95651.97
2023-01-04T22:44:28.052Z,95649.59
2023-01-04T22:46:54.533Z,95657.09
2023-01-04T22:49:20.998Z,95656.69
2023-01-04T22:51:47.426Z,95656.53
2023-01-04T22:54:13.884Z,95659.59
2023-01-04T22:56:40.343Z,95660.16
2023-01-04T22:59:06.866Z,95651.28
2023-01-04T23:01:33.398Z,95651.13
2023-01-04T23:03:59.925Z,95651.97
2023-01-04T23:06:26.413Z,95648.19
2023-01-04T23:08:52.875Z,95652.78
2023-01-04T23:11:19.318Z,95645.44
2023-01-04T23:13:45.779Z,95656.94
2023-01-04T23:16:12.241Z,95647.22
2023-01-04T23:18:39.541Z,95647.50
2023-01-04T23:21:05.978Z,95648.63
2023-01-04T23:23:32.724Z,95651.53
2023-01-04T23:25:59.151Z,95646.13
2023-01-04T23:28:25.614Z,95637.59
2023-01-04T23:30:52.100Z,95633.19
2023-01-04T23:33:18.560Z,95635.00
2023-01-04T23:35:45.055Z,95633.50
2023-01-04T23:38:11.468Z,95638.91
2023-01-04T23:40:37.925Z,95633.50
2023-01-04T23:43:04.325Z,95627.22
2023-01-04T23:45:30.736Z,95629.88
2023-01-04T23:47:57.136Z,95622.94
2023-01-04T23:50:23.558Z,95619.31
2023-01-04T23:52:49.958Z,95619.47
2023-01-04T23:55:17.458Z,95617.66
2023-01-04T23:57:45.037Z,95614.03
